Time;durP1;ratioP1;P1;durP2;ratioP2;P2;SDS_P1;SDS_P2;PMS_P1;PMS_P2;Temp;Humidity;BMP_temperature;BMP_pressure;BME280_temperature;BME280_humidity;BME280_pressure;Samples;Min_cycle;Max_cycle;Signal;HPM_P1;HPM_P2
2024/04/15 00:00:05;;;;;;;;;;;21.90;48.90;;;;;;1515554;77;1131;-68
2024/04/15 00:02:07;;;;;;;;;;;21.90;48.90;;;;;;1514950;77;2351;-69
2024/04/15 00:04:09;;;;;;;;;;;21.90;48.90;;;;;;1509937;77;744;-70
2024/04/15 00:06:11;;;;;;;;;;;21.90;49.00;;;;;;1505262;77;1957;-69
2024/04/15 00:08:13;;;;;;;;;;;21.90;49.00;;;;;;1506947;77;811;-68
2024/04/15 00:10:14;;;;;;;;;;;21.90;48.90;;;;;;1513500;77;1147;-69
2024/04/15 00:12:17;;;;;;;;;;;21.90;49.00;;;;;;1506839;77;1579;-67
2024/04/15 00:14:19;;;;;;;;;;;21.90;49.00;;;;;;1508739;77;636;-69
2024/04/15 00:16:21;;;;;;;;;;;22.00;49.00;;;;;;1517019;77;680;-67
2024/04/15 00:18:23;;;;;;;;;;;21.90;49.10;;;;;;1516994;77;1442;-67
2024/04/15 00:20:26;;;;;;;;;;;21.90;49.00;;;;;;1511447;77;1199;-68
2024/04/15 00:22:28;;;;;;;;;;;22.00;49.10;;;;;;1513283;77;680;-71
2024/04/15 00:24:30;;;;;;;;;;;21.90;49.00;;;;;;1505818;78;1077;-67
2024/04/15 00:26:32;;;;;;;;;;;21.90;49.10;;;;;;1506144;77;1940;-68
2024/04/15 00:28:34;;;;;;;;;;;21.90;49.10;;;;;;1516675;77;1192;-67
2024/04/15 00:30:35;;;;;;;;;;;21.90;49.10;;;;;;1509137;77;677;-66
2024/04/15 00:32:37;;;;;;;;;;;22.00;49.10;;;;;;1513025;77;885;-68
2024/04/15 00:34:39;;;;;;;;;;;21.90;49.10;;;;;;1515104;77;743;-68
2024/04/15 00:36:42;;;;;;;;;;;21.90;49.10;;;;;;1515313;77;822;-70
2024/04/15 00:38:44;;;;;;;;;;;22.00;49.10;;;;;;1508153;77;1151;-67
2024/04/15 00:40:47;;;;;;;;;;;21.90;49.10;;;;;;1505827;77;1543;-67
2024/04/15 00:42:49;;;;;;;;;;;21.90;49.10;;;;;;1499543;77;667;-68
2024/04/15 00:44:51;;;;;;;;;;;21.90;49.20;;;;;;1516277;77;717;-69
2024/04/15 00:46:52;;;;;;;;;;;22.00;49.20;;;;;;1514155;77;1943;-69
2024/04/15 00:48:54;;;;;;;;;;;21.90;49.20;;;;;;1519274;76;1203;-68
2024/04/15 00:50:56;;;;;;;;;;;21.90;49.20;;;;;;1510725;78;716;-71
2024/04/15 00:52:58;;;;;;;;;;;22.00;49.20;;;;;;1507232;77;777;-68
2024/04/15 00:55:00;;;;;;;;;;;21.90;49.20;;;;;;1511382;78;1564;-67
2024/04/15 00:57:02;;;;;;;;;;;21.90;49.30;;;;;;1512251;78;758;-67
2024/04/15 00:59:04;;;;;;;;;;;21.90;49.30;;;;;;1507685;77;1125;-67
2024/04/15 01:01:06;;;;;;;;;;;21.90;49.30;;;;;;1512226;77;770;-68
2024/04/15 01:03:08;;;;;;;;;;;22.00;49.30;;;;;;1516579;77;730;-67
2024/04/15 01:05:12;;;;;;;;;;;21.90;49.30;;;;;;1510042;77;657;-69
2024/04/15 01:07:14;;;;;;;;;;;21.90;49.40;;;;;;1499444;77;1949;-68
2024/04/15 01:09:16;;;;;;;;;;;22.00;49.30;;;;;;1506815;77;1555;-67
2024/04/15 01:11:18;;;;;;;;;;;21.90;49.40;;;;;;1526033;76;677;-70
2024/04/15 01:13:20;;;;;;;;;;;21.90;49.40;;;;;;1518397;76;833;-71
2024/04/15 01:15:22;;;;;;;;;;;21.90;49.40;;;;;;1502698;78;784;-71
2024/04/15 01:17:24;;;;;;;;;;;21.90;49.40;;;;;;1514058;77;1361;-68
2024/04/15 01:19:26;;;;;;;;;;;21.90;49.40;;;;;;1508290;77;1192;-68
2024/04/15 01:21:27;;;;;;;;;;;21.90;49.40;;;;;;1509203;78;702;-67
2024/04/15 01:23:34;;;;;;;;;;;22.00;49.40;;;;;;1551204;74;1570;-68
2024/04/15 01:25:36;;;;;;;;;;;22.00;49.40;;;;;;1562878;74;781;-68
2024/04/15 01:27:38;;;;;;;;;;;21.90;49.40;;;;;;1558754;74;1939;-73
2024/04/15 01:29:40;;;;;;;;;;;21.90;49.40;;;;;;1561326;74;1171;-68
2024/04/15 01:31:41;;;;;;;;;;;21.90;49.50;;;;;;1552002;74;768;-69
2024/04/15 01:33:43;;;;;;;;;;;22.00;49.50;;;;;;1555414;74;681;-70
2024/04/15 01:35:45;;;;;;;;;;;21.90;49.50;;;;;;1552753;75;791;-68
2024/04/15 01:37:53;;;;;;;;;;;22.00;49.60;;;;;;1554195;74;1430;-67
2024/04/15 01:39:51;;;;;;;;;;;21.90;49.60;;;;;;1550970;75;1646;-70
2024/04/15 01:41:52;;;;;;;;;;;21.90;49.60;;;;;;1558715;75;645;-68
2024/04/15 01:43:54;;;;;;;;;;;22.00;49.60;;;;;;1555689;74;784;-72
2024/04/15 01:45:56;;;;;;;;;;;22.00;49.60;;;;;;1541098;75;733;-70
2024/04/15 01:47:58;;;;;;;;;;;21.90;49.60;;;;;;1554592;74;1962;-71
2024/04/15 01:50:00;;;;;;;;;;;21.90;49.60;;;;;;1552842;74;1171;-71
2024/04/15 01:52:02;;;;;;;;;;;22.00;49.70;;;;;;1555901;75;1682;-70
2024/04/15 01:54:04;;;;;;;;;;;21.90;49.70;;;;;;1552502;74;778;-67
2024/04/15 01:56:06;;;;;;;;;;;21.90;49.70;;;;;;1550457;75;790;-68
2024/04/15 01:58:08;;;;;;;;;;;21.90;49.60;;;;;;1551163;74;674;-68
2024/04/15 02:00:11;;;;;;;;;;;22.00;49.70;;;;;;1557083;75;1099;-70
2024/04/15 02:02:12;;;;;;;;;;;21.90;49.70;;;;;;1546793;74;740;-70
2024/04/15 02:04:14;;;;;;;;;;;21.90;49.70;;;;;;1549999;75;688;-68
2024/04/15 02:06:16;;;;;;;;;;;22.00;49.70;;;;;;1554778;74;1539;-70
2024/04/15 02:08:18;;;;;;;;;;;22.00;49.70;;;;;;1549828;75;1948;-68
2024/04/15 02:10:20;;;;;;;;;;;21.90;49.80;;;;;;1554704;75;1123;-69
2024/04/15 02:12:22;;;;;;;;;;;22.00;49.70;;;;;;1557011;74;735;-68
2024/04/15 02:14:24;;;;;;;;;;;22.00;49.70;;;;;;1555319;74;694;-68
2024/04/15 02:16:26;;;;;;;;;;;22.00;49.80;;;;;;1555253;75;1111;-68
2024/04/15 02:18:27;;;;;;;;;;;21.90;49.80;;;;;;1557921;75;1324;-70
2024/04/15 02:20:29;;;;;;;;;;;22.00;49.90;;;;;;1553768;74;721;-68
2024/04/15 02:22:31;;;;;;;;;;;22.00;49.90;;;;;;1548634;75;718;-69
2024/04/15 02:24:33;;;;;;;;;;;22.00;49.80;;;;;;1559678;74;659;-70
2024/04/15 02:26:35;;;;;;;;;;;21.90;49.90;;;;;;1545396;74;799;-72
2024/04/15 02:28:37;;;;;;;;;;;22.00;49.90;;;;;;1548260;75;1938;-71
2024/04/15 02:30:39;;;;;;;;;;;21.90;50.00;;;;;;1544654;75;823;-67
2024/04/15 02:32:42;;;;;;;;;;;21.90;50.10;;;;;;1545422;75;1573;-68
2024/04/15 02:34:44;;;;;;;;;;;22.00;50.10;;;;;;1546554;75;714;-68
2024/04/15 02:36:46;;;;;;;;;;;21.90;50.10;;;;;;1539080;76;766;-70
2024/04/15 02:38:49;;;;;;;;;;;21.90;50.10;;;;;;1540920;75;1175;-71
2024/04/15 02:40:52;;;;;;;;;;;22.00;50.10;;;;;;1533589;75;660;-68
2024/04/15 02:42:54;;;;;;;;;;;21.90;50.10;;;;;;1552135;75;667;-68
2024/04/15 02:44:55;;;;;;;;;;;21.90;50.10;;;;;;1542590;75;616;-67
2024/04/15 02:46:57;;;;;;;;;;;21.90;50.10;;;;;;1541461;75;1949;-69
2024/04/15 02:48:59;;;;;;;;;;;22.00;50.10;;;;;;1547702;75;1204;-68
2024/04/15 02:51:01;;;;;;;;;;;21.90;50.10;;;;;;1544805;76;738;-72
2024/04/15 02:53:03;;;;;;;;;;;21.90;50.10;;;;;;1543193;75;743;-72
2024/04/15 02:55:05;;;;;;;;;;;21.90;50.10;;;;;;1533657;75;745;-73
2024/04/15 02:57:07;;;;;;;;;;;21.90;50.10;;;;;;1539855;75;807;-71
2024/04/15 02:59:09;;;;;;;;;;;21.90;50.10;;;;;;1547326;75;1151;-67
2024/04/15 03:01:11;;;;;;;;;;;21.90;50.10;;;;;;1548500;75;1569;-69
2024/04/15 03:03:13;;;;;;;;;;;21.90;50.10;;;;;;1543260;75;765;-68
2024/04/15 03:05:14;;;;;;;;;;;21.90;50.20;;;;;;1538834;75;808;-68
2024/04/15 03:07:16;;;;;;;;;;;22.00;50.20;;;;;;1547164;75;1939;-69
2024/04/15 03:09:21;;;;;;;;;;;21.90;50.20;;;;;;1546101;75;1070;-71
2024/04/15 03:11:22;;;;;;;;;;;21.90;50.20;;;;;;1540268;75;1456;-66
2024/04/15 03:13:24;;;;;;;;;;;21.90;50.40;;;;;;1547091;75;725;-68
2024/04/15 03:15:26;;;;;;;;;;;22.00;50.40;;;;;;1537395;75;1418;-69
2024/04/15 03:17:28;;;;;;;;;;;21.90;50.30;;;;;;1538073;75;1029;-68
2024/04/15 03:19:29;;;;;;;;;;;21.90;50.50;;;;;;1548123;75;1146;-67
2024/04/15 03:21:31;;;;;;;;;;;21.90;50.60;;;;;;1546510;75;683;-71
2024/04/15 03:23:33;;;;;;;;;;;21.90;50.50;;;;;;1539622;75;788;-69
2024/04/15 03:25:35;;;;;;;;;;;21.90;50.60;;;;;;1539108;75;663;-70
2024/04/15 03:27:37;;;;;;;;;;;21.90;50.70;;;;;;1546164;75;1924;-72
2024/04/15 03:29:39;;;;;;;;;;;21.90;50.70;;;;;;1539495;75;1358;-68
2024/04/15 03:31:41;;;;;;;;;;;21.90;50.80;;;;;;1543454;75;866;-68
2024/04/15 03:33:43;;;;;;;;;;;21.90;50.80;;;;;;1541035;75;721;-67
2024/04/15 03:35:45;;;;;;;;;;;21.90;50.80;;;;;;1545772;75;750;-68
2024/04/15 03:37:47;;;;;;;;;;;21.90;50.90;;;;;;1540440;75;697;-68
2024/04/15 03:39:49;;;;;;;;;;;22.00;50.90;;;;;;1552502;75;1134;-69
2024/04/15 03:41:51;;;;;;;;;;;21.90;50.80;;;;;;1544547;75;764;-67
2024/04/15 03:43:53;;;;;;;;;;;22.00;50.90;;;;;;1541875;75;1592;-67
2024/04/15 03:45:55;;;;;;;;;;;21.90;51.00;;;;;;1543498;75;727;-70
2024/04/15 03:47:57;;;;;;;;;;;21.90;51.00;;;;;;1529918;75;1947;-69
2024/04/15 03:49:59;;;;;;;;;;;21.90;51.00;;;;;;1543580;75;1175;-70
2024/04/15 03:52:01;;;;;;;;;;;22.00;51.00;;;;;;1552474;75;763;-70
2024/04/15 03:54:03;;;;;;;;;;;21.90;51.00;;;;;;1532231;75;763;-67
2024/04/15 03:56:05;;;;;;;;;;;22.00;51.00;;;;;;1543157;75;682;-67
2024/04/15 03:58:07;;;;;;;;;;;21.90;51.00;;;;;;1544508;75;1572;-68
2024/04/15 04:00:09;;;;;;;;;;;21.90;51.00;;;;;;1540625;75;1127;-70
2024/04/15 04:02:11;;;;;;;;;;;21.90;51.00;;;;;;1551478;75;701;-68
2024/04/15 04:04:15;;;;;;;;;;;21.90;50.90;;;;;;1543182;75;684;-68
2024/04/15 04:06:16;;;;;;;;;;;21.90;50.90;;;;;;1537043;75;1962;-72
2024/04/15 04:08:18;;;;;;;;;;;21.90;51.00;;;;;;1544401;75;1923;-72
2024/04/15 04:10:20;;;;;;;;;;;22.00;51.00;;;;;;1538077;75;1117;-73
2024/04/15 04:12:22;;;;;;;;;;;22.00;51.00;;;;;;1542749;75;1525;-71
2024/04/15 04:14:25;;;;;;;;;;;21.90;51.00;;;;;;1543464;75;743;-70
2024/04/15 04:16:27;;;;;;;;;;;22.00;51.00;;;;;;1540732;75;816;-71
2024/04/15 04:18:32;;;;;;;;;;;22.00;50.90;;;;;;1548981;75;1151;-68
2024/04/15 04:20:34;;;;;;;;;;;22.00;50.90;;;;;;1534951;75;698;-67
2024/04/15 04:22:36;;;;;;;;;;;22.00;50.90;;;;;;1548691;75;804;-69
2024/04/15 04:24:38;;;;;;;;;;;21.90;51.00;;;;;;1551703;75;723;-73
2024/04/15 04:26:40;;;;;;;;;;;21.90;50.90;;;;;;1546641;75;1275;-70
2024/04/15 04:28:42;;;;;;;;;;;21.90;50.90;;;;;;1548333;75;1939;-72
2024/04/15 04:30:44;;;;;;;;;;;21.90;50.90;;;;;;1548608;75;793;-69
2024/04/15 04:32:46;;;;;;;;;;;22.00;50.90;;;;;;1545417;75;669;-68
2024/04/15 04:34:47;;;;;;;;;;;21.90;50.90;;;;;;1547239;75;748;-67
2024/04/15 04:36:49;;;;;;;;;;;21.90;50.90;;;;;;1544811;75;755;-69
2024/04/15 04:38:51;;;;;;;;;;;21.90;50.90;;;;;;1539268;75;1094;-68
2024/04/15 04:41:00;;;;;;;;;;;21.90;50.80;;;;;;1551881;75;1692;-70
2024/04/15 04:43:01;;;;;;;;;;;21.90;50.90;;;;;;1542359;75;778;-70
2024/04/15 04:45:04;;;;;;;;;;;21.90;50.80;;;;;;1553993;75;706;-72
2024/04/15 04:47:05;;;;;;;;;;;21.90;50.80;;;;;;1545349;75;778;-67
2024/04/15 04:49:07;;;;;;;;;;;21.90;50.90;;;;;;1534763;75;1944;-69
2024/04/15 04:51:09;;;;;;;;;;;21.90;51.00;;;;;;1537718;75;651;-68
2024/04/15 04:53:12;;;;;;;;;;;21.90;51.00;;;;;;1542297;75;1553;-69
2024/04/15 04:55:13;;;;;;;;;;;22.00;51.00;;;;;;1548858;75;737;-70
2024/04/15 04:57:15;;;;;;;;;;;22.00;51.00;;;;;;1535840;75;660;-70
2024/04/15 04:59:17;;;;;;;;;;;21.90;50.80;;;;;;1540149;75;1147;-67
2024/04/15 05:01:19;;;;;;;;;;;22.00;50.90;;;;;;1548905;75;702;-72
2024/04/15 05:03:21;;;;;;;;;;;22.00;50.90;;;;;;1547687;75;635;-69
2024/04/15 05:05:23;;;;;;;;;;;21.90;50.90;;;;;;1550376;75;672;-68
2024/04/15 05:07:25;;;;;;;;;;;22.00;50.80;;;;;;1546557;75;1523;-70
2024/04/15 05:09:27;;;;;;;;;;;21.90;50.70;;;;;;1544362;75;1915;-72
2024/04/15 05:11:29;;;;;;;;;;;21.90;50.80;;;;;;1540600;75;668;-70
2024/04/15 05:13:31;;;;;;;;;;;21.90;50.80;;;;;;1552838;75;801;-70
2024/04/15 05:15:32;;;;;;;;;;;21.90;50.70;;;;;;1537335;75;669;-70
2024/04/15 05:17:35;;;;;;;;;;;21.90;50.80;;;;;;1544537;75;736;-68
2024/04/15 05:19:36;;;;;;;;;;;21.90;50.70;;;;;;1548160;75;1133;-68
2024/04/15 05:21:38;;;;;;;;;;;21.90;50.80;;;;;;1545214;75;1576;-74
2024/04/15 05:23:40;;;;;;;;;;;21.90;50.80;;;;;;1551325;75;868;-67
2024/04/15 05:25:42;;;;;;;;;;;21.90;50.70;;;;;;1545370;75;815;-67
2024/04/15 05:27:44;;;;;;;;;;;21.90;50.80;;;;;;1546182;76;805;-69
2024/04/15 05:29:46;;;;;;;;;;;21.90;50.80;;;;;;1543579;75;1940;-71
2024/04/15 05:31:48;;;;;;;;;;;21.90;50.70;;;;;;1550872;75;659;-69
2024/04/15 05:33:50;;;;;;;;;;;21.90;50.70;;;;;;1546638;75;784;-68
2024/04/15 05:35:52;;;;;;;;;;;21.90;50.80;;;;;;1541532;75;1549;-70
2024/04/15 05:37:54;;;;;;;;;;;21.90;50.70;;;;;;1548597;75;755;-69
2024/04/15 05:39:56;;;;;;;;;;;21.90;50.80;;;;;;1541062;75;1145;-69
2024/04/15 05:41:58;;;;;;;;;;;21.90;50.80;;;;;;1530500;75;784;-71
2024/04/15 05:44:00;;;;;;;;;;;21.90;50.70;;;;;;1537652;75;678;-68
2024/04/15 05:46:02;;;;;;;;;;;21.90;50.70;;;;;;1541159;75;736;-68
2024/04/15 05:48:04;;;;;;;;;;;21.90;50.70;;;;;;1543548;75;1941;-71
2024/04/15 05:50:06;;;;;;;;;;;21.90;50.70;;;;;;1539846;75;1630;-70
2024/04/15 05:52:08;;;;;;;;;;;21.90;50.70;;;;;;1532691;75;794;-72
2024/04/15 05:54:09;;;;;;;;;;;21.90;50.80;;;;;;1544551;75;813;-68
2024/04/15 05:56:11;;;;;;;;;;;21.90;50.80;;;;;;1545386;75;805;-69
2024/04/15 05:58:13;;;;;;;;;;;21.90;50.80;;;;;;1547069;75;699;-68
2024/04/15 06:00:15;;;;;;;;;;;21.90;50.80;;;;;;1549315;75;1193;-68
2024/04/15 06:02:17;;;;;;;;;;;21.90;50.80;;;;;;1542355;75;730;-67
2024/04/15 06:04:19;;;;;;;;;;;21.80;50.60;;;;;;1543996;75;1542;-69
2024/04/15 06:06:21;;;;;;;;;;;21.90;50.70;;;;;;1544840;76;776;-71
2024/04/15 06:08:23;;;;;;;;;;;21.90;50.70;;;;;;1548144;75;1935;-68
2024/04/15 06:10:24;;;;;;;;;;;21.80;50.70;;;;;;1541418;75;1133;-71
2024/04/15 06:12:28;;;;;;;;;;;21.90;50.70;;;;;;1537114;75;749;-69
2024/04/15 06:14:30;;;;;;;;;;;21.80;50.60;;;;;;1546161;75;1336;-69
2024/04/15 06:16:32;;;;;;;;;;;21.80;50.60;;;;;;1548731;75;695;-69
2024/04/15 06:18:34;;;;;;;;;;;21.90;50.70;;;;;;1542036;75;1558;-73
2024/04/15 06:20:36;;;;;;;;;;;21.80;50.60;;;;;;1546078;75;675;-72
2024/04/15 06:22:37;;;;;;;;;;;21.80;50.60;;;;;;1536818;75;701;-71
2024/04/15 06:24:39;;;;;;;;;;;21.80;50.60;;;;;;1540747;75;743;-67
2024/04/15 06:26:41;;;;;;;;;;;21.90;50.70;;;;;;1533357;75;846;-72
2024/04/15 06:28:43;;;;;;;;;;;21.90;50.70;;;;;;1531646;75;1944;-71
2024/04/15 06:30:45;;;;;;;;;;;21.90;50.70;;;;;;1536602;75;652;-68
2024/04/15 06:32:47;;;;;;;;;;;21.80;50.60;;;;;;1543496;75;1491;-71
2024/04/15 06:34:49;;;;;;;;;;;21.90;50.70;;;;;;1537840;75;691;-71
2024/04/15 06:36:52;;;;;;;;;;;21.90;50.70;;;;;;1546949;75;682;-71
2024/04/15 06:38:54;;;;;;;;;;;21.80;50.60;;;;;;1540226;75;1138;-68
2024/04/15 06:40:56;;;;;;;;;;;21.90;50.70;;;;;;1543644;75;756;-67
2024/04/15 06:42:58;;;;;;;;;;;21.90;50.70;;;;;;1551815;75;712;-70
2024/04/15 06:45:00;;;;;;;;;;;21.80;50.60;;;;;;1546508;75;698;-69
2024/04/15 06:47:02;;;;;;;;;;;21.80;50.60;;;;;;1548111;75;1250;-71
2024/04/15 06:49:04;;;;;;;;;;;21.80;50.50;;;;;;1536895;75;1938;-67
2024/04/15 06:51:06;;;;;;;;;;;21.80;50.60;;;;;;1545325;75;636;-68
2024/04/15 06:53:08;;;;;;;;;;;21.80;50.50;;;;;;1546987;75;798;-68
2024/04/15 06:55:09;;;;;;;;;;;21.90;50.60;;;;;;1542022;75;944;-69
2024/04/15 06:57:11;;;;;;;;;;;21.90;50.60;;;;;;1548602;75;691;-68
2024/04/15 06:59:13;;;;;;;;;;;21.90;50.70;;;;;;1544159;75;1174;-71
2024/04/15 07:01:15;;;;;;;;;;;21.80;50.50;;;;;;1545214;75;1544;-69
2024/04/15 07:03:17;;;;;;;;;;;21.80;50.50;;;;;;1543888;75;739;-73
2024/04/15 07:05:19;;;;;;;;;;;21.80;50.50;;;;;;1542223;75;772;-69
2024/04/15 07:07:25;;;;;;;;;;;21.80;50.50;;;;;;1533488;75;739;-69
2024/04/15 07:09:27;;;;;;;;;;;21.90;50.60;;;;;;1542838;75;2011;-68
2024/04/15 07:11:29;;;;;;;;;;;21.90;50.60;;;;;;1537674;75;681;-69
2024/04/15 07:13:34;;;;;;;;;;;21.80;50.50;;;;;;1549376;75;701;-69
2024/04/15 07:15:35;;;;;;;;;;;21.90;50.60;;;;;;1534985;75;1537;-67
2024/04/15 07:17:38;;;;;;;;;;;21.90;50.50;;;;;;1537430;75;777;-68
2024/04/15 07:19:40;;;;;;;;;;;21.80;50.40;;;;;;1549945;75;1129;-71
2024/04/15 07:21:42;;;;;;;;;;;21.90;50.50;;;;;;1529403;75;746;-67
2024/04/15 07:23:45;;;;;;;;;;;21.80;50.40;;;;;;1534094;75;807;-71
2024/04/15 07:25:47;;;;;;;;;;;21.80;50.40;;;;;;1540067;75;952;-75
2024/04/15 07:27:49;;;;;;;;;;;21.90;50.50;;;;;;1538993;75;687;-72
2024/04/15 07:29:51;;;;;;;;;;;21.90;50.50;;;;;;1536584;75;1964;-71
2024/04/15 07:31:54;;;;;;;;;;;21.90;50.50;;;;;;1540989;75;793;-68
2024/04/15 07:33:56;;;;;;;;;;;21.80;50.40;;;;;;1545317;75;762;-68
2024/04/15 07:35:59;;;;;;;;;;;21.90;50.50;;;;;;1551394;75;697;-67
2024/04/15 07:38:01;;;;;;;;;;;21.80;50.40;;;;;;1551624;75;695;-68
2024/04/15 07:40:04;;;;;;;;;;;21.80;50.40;;;;;;1548520;75;1109;-67
2024/04/15 07:42:06;;;;;;;;;;;21.80;50.40;;;;;;1534485;75;1297;-72
2024/04/15 07:44:08;;;;;;;;;;;21.80;50.30;;;;;;1549379;75;846;-69
2024/04/15 07:46:10;;;;;;;;;;;21.90;50.50;;;;;;1533496;75;733;-73
2024/04/15 07:48:13;;;;;;;;;;;21.80;50.30;;;;;;1543900;75;682;-67
2024/04/15 07:50:15;;;;;;;;;;;21.80;50.30;;;;;;1552967;75;1958;-68
2024/04/15 07:52:17;;;;;;;;;;;21.80;50.40;;;;;;1537700;75;607;-68
2024/04/15 07:54:19;;;;;;;;;;;21.80;50.30;;;;;;1545156;75;748;-72
2024/04/15 07:56:21;;;;;;;;;;;21.80;50.30;;;;;;1538593;75;1457;-71
2024/04/15 07:58:22;;;;;;;;;;;21.90;50.50;;;;;;1545683;75;716;-67
2024/04/15 08:00:25;;;;;;;;;;;21.90;50.40;;;;;;1541221;75;1160;-70
2024/04/15 08:02:27;;;;;;;;;;;21.80;50.30;;;;;;1550730;75;661;-67
2024/04/15 08:04:29;;;;;;;;;;;21.80;50.30;;;;;;1553094;75;706;-67
2024/04/15 08:06:31;;;;;;;;;;;21.90;50.40;;;;;;1544026;75;849;-68
2024/04/15 08:08:32;;;;;;;;;;;21.90;50.40;;;;;;1546049;76;1165;-70
2024/04/15 08:10:35;;;;;;;;;;;21.80;50.30;;;;;;1551749;75;1930;-68
2024/04/15 08:12:37;;;;;;;;;;;21.80;50.20;;;;;;1538577;75;600;-73
2024/04/15 08:14:38;;;;;;;;;;;21.80;50.30;;;;;;1531396;75;853;-73
2024/04/15 08:16:40;;;;;;;;;;;21.80;50.20;;;;;;1542167;75;773;-71
2024/04/15 08:18:42;;;;;;;;;;;21.90;50.40;;;;;;1544388;75;1110;-67
2024/04/15 08:20:46;;;;;;;;;;;21.80;50.20;;;;;;1553828;75;680;-68
2024/04/15 08:22:48;;;;;;;;;;;21.80;50.20;;;;;;1535560;75;1872;-68
2024/04/15 08:24:50;;;;;;;;;;;21.80;50.20;;;;;;1545929;75;1522;-68
2024/04/15 08:26:52;;;;;;;;;;;21.80;50.20;;;;;;1532540;75;803;-71
2024/04/15 08:28:54;;;;;;;;;;;21.80;50.20;;;;;;1551367;75;1169;-70
2024/04/15 08:30:56;;;;;;;;;;;21.80;50.20;;;;;;1544491;75;1957;-67
2024/04/15 08:32:58;;;;;;;;;;;21.80;50.20;;;;;;1543884;75;786;-69
2024/04/15 08:34:59;;;;;;;;;;;21.80;50.20;;;;;;1535233;75;730;-70
2024/04/15 08:37:01;;;;;;;;;;;21.80;50.20;;;;;;1549494;75;678;-68
2024/04/15 08:39:03;;;;;;;;;;;21.80;50.20;;;;;;1545488;75;1627;-68
2024/04/15 08:41:05;;;;;;;;;;;21.80;50.20;;;;;;1535962;75;737;-69
2024/04/15 08:43:07;;;;;;;;;;;21.80;50.10;;;;;;1513985;77;832;-68
2024/04/15 08:45:09;;;;;;;;;;;21.80;50.20;;;;;;1495727;77;785;-68
2024/04/15 08:47:13;;;;;;;;;;;21.80;50.20;;;;;;1488400;77;534;-69
2024/04/15 08:49:15;;;;;;;;;;;21.80;50.20;;;;;;1515790;77;1960;-71
2024/04/15 08:51:17;;;;;;;;;;;21.80;50.10;;;;;;1490719;79;752;-69
2024/04/15 08:53:19;;;;;;;;;;;21.80;50.10;;;;;;1503023;78;1572;-71
2024/04/15 08:55:22;;;;;;;;;;;21.80;50.10;;;;;;1510499;76;663;-71
2024/04/15 08:57:24;;;;;;;;;;;21.80;50.10;;;;;;1495754;77;772;-71
2024/04/15 08:59:25;;;;;;;;;;;21.80;50.10;;;;;;1556468;75;1161;-69
2024/04/15 09:01:29;;;;;;;;;;;21.80;50.10;;;;;;1553814;75;680;-70
2024/04/15 09:03:31;;;;;;;;;;;21.80;50.00;;;;;;1552673;74;663;-72
2024/04/15 09:05:34;;;;;;;;;;;21.80;50.10;;;;;;1549326;74;733;-69
2024/04/15 09:07:35;;;;;;;;;;;21.80;50.10;;;;;;1548718;74;1513;-67
2024/04/15 09:09:37;;;;;;;;;;;21.80;50.10;;;;;;1544636;75;1946;-68
2024/04/15 09:11:39;;;;;;;;;;;21.80;50.10;;;;;;1538898;74;820;-69
2024/04/15 09:13:41;;;;;;;;;;;21.80;50.10;;;;;;1557629;74;868;-68
2024/04/15 09:15:45;;;;;;;;;;;21.80;50.00;;;;;;1555697;74;672;-68
2024/04/15 09:17:47;;;;;;;;;;;21.80;50.10;;;;;;1546276;74;1827;-67
2024/04/15 09:19:51;;;;;;;;;;;21.80;50.00;;;;;;1560853;74;1098;-70
2024/04/15 09:21:55;;;;;;;;;;;21.80;50.10;;;;;;1547245;74;1648;-72
2024/04/15 09:23:56;;;;;;;;;;;21.80;50.10;;;;;;1546336;74;2123;-67
2024/04/15 09:25:58;;;;;;;;;;;21.80;50.10;;;;;;1554980;74;749;-68
2024/04/15 09:28:04;;;;;;;;;;;21.80;50.00;;;;;;1554664;75;786;-70
2024/04/15 09:30:04;;;;;;;;;;;21.80;50.00;;;;;;1551639;75;1954;-70
2024/04/15 09:32:06;;;;;;;;;;;21.80;50.00;;;;;;1558271;74;714;-69
2024/04/15 09:34:08;;;;;;;;;;;21.80;50.00;;;;;;1555094;74;752;-71
2024/04/15 09:36:10;;;;;;;;;;;21.80;50.00;;;;;;1551420;75;1699;-68
2024/04/15 09:38:12;;;;;;;;;;;21.80;50.00;;;;;;1547552;74;669;-68
2024/04/15 09:40:15;;;;;;;;;;;21.80;50.00;;;;;;1550095;74;1167;-75
2024/04/15 09:42:17;;;;;;;;;;;21.80;50.00;;;;;;1475858;78;720;-70
2024/04/15 09:44:18;;;;;;;;;;;21.80;50.00;;;;;;1562655;74;735;-67
2024/04/15 09:46:20;;;;;;;;;;;21.80;50.00;;;;;;1545609;74;672;-67
2024/04/15 09:48:23;;;;;;;;;;;21.80;50.00;;;;;;1554306;74;754;-70
2024/04/15 09:50:25;;;;;;;;;;;21.80;50.00;;;;;;1546769;74;1944;-72
2024/04/15 09:52:34;;;;;;;;;;;21.80;50.00;;;;;;1546848;74;733;-69
2024/04/15 09:54:36;;;;;;;;;;;21.80;50.00;;;;;;1554964;74;735;-68
2024/04/15 09:56:45;;;;;;;;;;;21.80;50.00;;;;;;1549772;74;920;-69
2024/04/15 09:58:47;;;;;;;;;;;21.80;49.90;;;;;;1547214;74;1109;-69
2024/04/15 10:00:49;;;;;;;;;;;21.80;50.00;;;;;;1553175;75;704;-72
2024/04/15 10:02:55;;;;;;;;;;;21.80;49.90;;;;;;1545027;75;1381;-67
2024/04/15 10:04:58;;;;;;;;;;;21.70;49.90;;;;;;1558162;74;727;-70
2024/04/15 10:07:01;;;;;;;;;;;21.80;49.90;;;;;;1554874;74;688;-67
2024/04/15 10:09:03;;;;;;;;;;;21.80;49.90;;;;;;1542765;75;1193;-73
2024/04/15 10:11:05;;;;;;;;;;;21.80;50.00;;;;;;1538175;74;1939;-73
2024/04/15 10:13:07;;;;;;;;;;;21.80;50.00;;;;;;1559735;74;742;-73
2024/04/15 10:15:09;;;;;;;;;;;21.80;49.90;;;;;;1556607;74;698;-71
2024/04/15 10:17:11;;;;;;;;;;;21.80;49.90;;;;;;1550578;75;1569;-68
2024/04/15 10:19:13;;;;;;;;;;;21.70;50.00;;;;;;1545002;74;1173;-68
2024/04/15 10:21:15;;;;;;;;;;;21.80;50.00;;;;;;1546247;74;703;-67
2024/04/15 10:23:18;;;;;;;;;;;21.80;49.90;;;;;;1551778;74;742;-67
2024/04/15 10:25:20;;;;;;;;;;;21.80;49.90;;;;;;1552941;74;752;-70
2024/04/15 10:27:22;;;;;;;;;;;21.70;50.00;;;;;;1554520;74;764;-69
2024/04/15 10:29:27;;;;;;;;;;;21.70;49.90;;;;;;1560607;74;1204;-70
2024/04/15 10:31:29;;;;;;;;;;;21.70;49.90;;;;;;1554238;75;1954;-68
2024/04/15 10:33:31;;;;;;;;;;;21.70;49.90;;;;;;1552109;74;709;-68
2024/04/15 10:35:33;;;;;;;;;;;21.80;49.90;;;;;;1559404;74;672;-69
2024/04/15 10:37:42;;;;;;;;;;;21.70;49.90;;;;;;1559542;74;659;-68
2024/04/15 10:39:45;;;;;;;;;;;21.70;49.90;;;;;;1553898;74;1194;-69
2024/04/15 10:41:48;;;;;;;;;;;21.70;49.90;;;;;;1543865;75;1595;-67
2024/04/15 10:43:50;;;;;;;;;;;21.80;49.90;;;;;;1545039;74;801;-67
2024/04/15 10:45:51;;;;;;;;;;;21.80;49.90;;;;;;1555257;74;1387;-67
2024/04/15 10:47:53;;;;;;;;;;;21.80;49.90;;;;;;1556357;74;696;-68
2024/04/15 10:49:55;;;;;;;;;;;21.80;49.80;;;;;;1548598;74;1936;-70
2024/04/15 10:51:57;;;;;;;;;;;21.70;49.90;;;;;;1553480;74;681;-74
2024/04/15 10:53:59;;;;;;;;;;;21.70;49.90;;;;;;1553901;75;765;-68
2024/04/15 10:56:01;;;;;;;;;;;21.80;49.80;;;;;;1544294;74;817;-67
2024/04/15 10:58:03;;;;;;;;;;;21.80;49.90;;;;;;1551815;74;691;-68
2024/04/15 11:00:07;;;;;;;;;;;21.80;49.80;;;;;;1549867;76;1610;-70
2024/04/15 11:02:10;;;;;;;;;;;21.80;49.80;;;;;;1557882;74;1697;-68
2024/04/15 11:04:12;;;;;;;;;;;21.70;49.80;;;;;;1549516;74;732;-67
2024/04/15 11:06:17;;;;;;;;;;;21.70;49.70;;;;;;1556866;74;714;-68
2024/04/15 11:08:19;;;;;;;;;;;21.80;49.80;;;;;;1536766;75;759;-70
2024/04/15 11:10:21;;;;;;;;;;;21.70;49.80;;;;;;1550002;74;1948;-71
2024/04/15 11:12:22;;;;;;;;;;;21.70;49.80;;;;;;1536905;74;924;-66
2024/04/15 11:14:24;;;;;;;;;;;21.70;49.80;;;;;;1554331;74;1565;-70
2024/04/15 11:16:26;;;;;;;;;;;21.80;49.80;;;;;;1551112;74;766;-67
2024/04/15 11:18:28;;;;;;;;;;;21.70;49.80;;;;;;1561912;74;682;-68
2024/04/15 11:20:30;;;;;;;;;;;21.70;49.80;;;;;;1540861;75;1128;-69
2024/04/15 11:22:32;;;;;;;;;;;21.70;49.80;;;;;;1548430;74;757;-68
2024/04/15 11:24:34;;;;;;;;;;;21.80;49.80;;;;;;1519491;78;692;-69
2024/04/15 11:26:36;;;;;;;;;;;21.70;49.80;;;;;;1514006;77;719;-70
2024/04/15 11:28:38;;;;;;;;;;;21.80;49.80;;;;;;1525960;76;1495;-68
2024/04/15 11:30:40;;;;;;;;;;;21.80;49.70;;;;;;1526438;76;1932;-72
2024/04/15 11:32:42;;;;;;;;;;;21.70;49.70;;;;;;1538735;74;708;-67
2024/04/15 11:34:44;;;;;;;;;;;21.80;49.70;;;;;;1565091;74;800;-67
2024/04/15 11:36:46;;;;;;;;;;;21.70;49.70;;;;;;1560922;74;774;-67
2024/04/15 11:38:48;;;;;;;;;;;21.70;49.70;;;;;;1554578;74;1140;-67
2024/04/15 11:40:50;;;;;;;;;;;21.70;49.70;;;;;;1555896;75;696;-68
2024/04/15 11:42:52;;;;;;;;;;;21.80;49.70;;;;;;1542929;74;1535;-67
2024/04/15 11:44:55;;;;;;;;;;;21.80;49.70;;;;;;1553683;74;732;-68
2024/04/15 11:46:57;;;;;;;;;;;21.80;49.70;;;;;;1554646;74;809;-72
2024/04/15 11:49:00;;;;;;;;;;;21.70;49.70;;;;;;1555604;75;1146;-68
2024/04/15 11:51:02;;;;;;;;;;;21.80;49.70;;;;;;1552775;74;1912;-68
2024/04/15 11:53:05;;;;;;;;;;;21.80;49.60;;;;;;1558527;75;1182;-68
2024/04/15 11:55:16;;;;;;;;;;;21.80;49.70;;;;;;1513286;76;1373;-67
2024/04/15 11:57:18;;;;;;;;;;;21.70;49.60;;;;;;1520346;77;700;-70
2024/04/15 11:59:20;;;;;;;;;;;21.70;49.70;;;;;;1514321;76;1150;-68
2024/04/15 12:01:22;;;;;;;;;;;21.80;49.70;;;;;;1529430;76;780;-67
2024/04/15 12:03:25;;;;;;;;;;;21.70;49.70;;;;;;1502729;78;787;-67
2024/04/15 12:05:27;;;;;;;;;;;21.80;49.70;;;;;;1508754;78;697;-68
2024/04/15 12:07:29;;;;;;;;;;;21.70;49.60;;;;;;1504279;78;664;-70